createdAt,value
2022-11-06T00:00:26.578Z,2.58
2022-11-06T00:03:28.427Z,2.75
2022-11-06T00:06:48.803Z,2.58
2022-11-06T00:09:50.622Z,1.83
2022-11-06T00:12:52.575Z,1.80
2022-11-06T00:15:54.557Z,2.10
2022-11-06T00:18:56.404Z,2.05
2022-11-06T00:21:58.261Z,1.70
2022-11-06T00:25:00.376Z,2.00
2022-11-06T00:28:02.221Z,2.58
2022-11-06T00:31:11.187Z,1.75
2022-11-06T00:34:12.956Z,1.80
2022-11-06T00:37:14.922Z,2.00
2022-11-06T00:40:16.930Z,1.77
2022-11-06T00:43:18.826Z,1.85
2022-11-06T00:46:20.869Z,1.92
2022-11-06T00:49:22.928Z,1.67
2022-11-06T00:52:24.768Z,1.20
2022-11-06T00:55:26.583Z,1.52
2022-11-06T00:58:28.374Z,1.60
2022-11-06T01:01:39.186Z,1.58
2022-11-06T01:04:41.076Z,2.00
2022-11-06T01:07:42.874Z,1.67
2022-11-06T01:10:44.579Z,1.35
2022-11-06T01:13:49.550Z,2.17
2022-11-06T01:16:51.821Z,1.80
2022-11-06T01:19:53.753Z,1.90
2022-11-06T01:22:55.558Z,1.63
2022-11-06T01:25:59.337Z,1.85
2022-11-06T01:29:01.130Z,2.00
2022-11-06T01:32:03.212Z,1.77
2022-11-06T01:35:05.245Z,1.50
2022-11-06T01:38:07.027Z,1.42
2022-11-06T01:41:09.188Z,1.83
2022-11-06T01:44:36.082Z,2.58
2022-11-06T01:47:38.115Z,2.33
2022-11-06T01:50:42.267Z,1.60
2022-11-06T01:53:44.103Z,2.35
2022-11-06T01:56:48.190Z,1.55
2022-11-06T01:59:51.105Z,2.75
2022-11-06T02:02:53.103Z,1.42
2022-11-06T02:05:55.154Z,2.20
2022-11-06T02:08:56.913Z,2.17
2022-11-06T02:12:19.312Z,2.10
2022-11-06T02:15:29.598Z,2.15
2022-11-06T02:18:45.019Z,2.20
2022-11-06T02:22:10.318Z,1.88
2022-11-06T02:25:21.329Z,1.92
2022-11-06T02:28:39.374Z,2.42
2022-11-06T02:31:42.679Z,2.90
2022-11-06T02:34:44.912Z,2.22
2022-11-06T02:37:47.685Z,2.88
2022-11-06T02:40:55.597Z,2.70
2022-11-06T02:43:57.685Z,2.05
2022-11-06T02:47:03.643Z,2.20
2022-11-06T02:50:11.394Z,3.03
2022-11-06T02:53:14.928Z,2.90
2022-11-06T02:56:21.023Z,2.63
2022-11-06T02:59:32.225Z,3.08
2022-11-06T03:02:38.222Z,2.25
2022-11-06T03:05:45.301Z,2.42
2022-11-06T03:09:03.252Z,2.47
2022-11-06T03:12:30.146Z,2.85
2022-11-06T03:18:50.122Z,2.03
2022-11-06T03:22:13.072Z,2.63
2022-11-06T03:25:28.480Z,2.25
2022-11-06T03:28:36.394Z,2.95
2022-11-06T03:31:49.985Z,3.22
2022-11-06T03:35:11.877Z,2.70
2022-11-06T03:38:31.252Z,2.28
2022-11-06T03:41:44.198Z,2.47
2022-11-06T03:44:48.836Z,2.55
2022-11-06T03:48:15.603Z,2.88
2022-11-06T03:51:48.442Z,2.75
2022-11-06T03:54:55.634Z,2.20
2022-11-06T04:01:04.308Z,2.28
2022-11-06T04:04:10.071Z,1.83
2022-11-06T04:07:36.842Z,2.63
2022-11-06T04:11:00.821Z,2.05
2022-11-06T04:14:05.550Z,2.05
2022-11-06T04:17:10.820Z,2.28
2022-11-06T04:20:35.880Z,2.80
2022-11-06T04:24:09.548Z,2.40
2022-11-06T04:27:33.631Z,1.42
2022-11-06T04:30:44.375Z,2.05
2022-11-06T04:33:56.657Z,3.20
2022-11-06T04:37:12.068Z,2.17
2022-11-06T04:40:37.198Z,2.20
2022-11-06T04:43:44.651Z,2.60
2022-11-06T04:46:54.976Z,2.05
2022-11-06T04:49:59.199Z,2.50
2022-11-06T04:53:02.406Z,2.70
2022-11-06T04:56:11.090Z,1.70
2022-11-06T04:59:15.907Z,2.10
2022-11-06T05:02:18.028Z,2.08
2022-11-06T05:05:19.870Z,2.22
2022-11-06T05:08:22.230Z,2.10
2022-11-06T05:11:24.026Z,2.00
2022-11-06T05:14:25.694Z,2.75
2022-11-06T05:17:29.686Z,2.72
2022-11-06T05:20:33.575Z,2.72
2022-11-06T05:23:35.693Z,2.15
2022-11-06T05:26:37.703Z,2.20
2022-11-06T05:29:39.578Z,2.03
2022-11-06T05:32:43.068Z,1.67
2022-11-06T05:35:44.741Z,2.08
2022-11-06T05:38:46.579Z,1.73
2022-11-06T05:41:49.038Z,1.80
2022-11-06T05:44:51.805Z,2.65
2022-11-06T05:47:54.175Z,2.42
2022-11-06T05:51:08.651Z,2.80
2022-11-06T05:54:10.742Z,2.13
2022-11-06T05:57:12.878Z,2.90
2022-11-06T06:00:15.260Z,2.80
2022-11-06T06:03:17.994Z,1.40
2022-11-06T06:06:21.148Z,1.67
2022-11-06T06:09:25.918Z,2.63
2022-11-06T06:12:27.985Z,2.47
2022-11-06T06:15:30.119Z,1.48
2022-11-06T06:18:31.991Z,2.28
2022-11-06T06:21:33.955Z,3.03
2022-11-06T06:24:35.842Z,1.73
2022-11-06T06:27:37.974Z,1.83
2022-11-06T06:30:40.334Z,2.28
2022-11-06T06:33:42.081Z,2.80
2022-11-06T06:36:44.029Z,1.98
2022-11-06T06:39:46.271Z,2.28
2022-11-06T06:42:48.064Z,2.40
2022-11-06T06:45:50.268Z,1.88
2022-11-06T06:48:52.165Z,2.25
2022-11-06T06:51:53.927Z,1.88
2022-11-06T06:54:57.030Z,2.03
2022-11-06T06:58:00.177Z,2.03
2022-11-06T07:01:04.646Z,1.73
2022-11-06T07:04:06.908Z,2.08
2022-11-06T07:07:09.087Z,2.00
2022-11-06T07:10:11.589Z,2.03
2022-11-06T07:13:13.925Z,2.83
2022-11-06T07:16:16.271Z,2.40
2022-11-06T07:19:18.466Z,2.08
2022-11-06T07:22:29.580Z,2.97
2022-11-06T07:25:35.493Z,2.22
2022-11-06T07:28:37.927Z,1.88
2022-11-06T07:31:40.580Z,2.00
2022-11-06T07:34:42.526Z,2.42
2022-11-06T07:37:45.873Z,2.75
2022-11-06T07:40:48.127Z,2.00
2022-11-06T07:43:50.562Z,2.38
2022-11-06T07:46:52.421Z,3.10
2022-11-06T07:49:54.505Z,1.88
2022-11-06T07:52:57.147Z,2.78
2022-11-06T07:56:00.004Z,2.53
2022-11-06T07:59:02.377Z,2.15
2022-11-06T08:02:04.444Z,2.75
2022-11-06T08:05:06.646Z,2.88
2022-11-06T08:08:09.051Z,3.03
2022-11-06T08:11:11.964Z,3.13
2022-11-06T08:14:14.718Z,2.25
2022-11-06T08:17:17.265Z,2.22
2022-11-06T08:20:19.928Z,2.95
2022-11-06T08:23:21.858Z,2.05
2022-11-06T08:26:23.974Z,2.67
2022-11-06T08:29:26.446Z,2.40
2022-11-06T08:32:29.494Z,2.63
2022-11-06T08:35:32.032Z,2.42
2022-11-06T08:38:34.188Z,3.17
2022-11-06T08:41:36.995Z,2.78
2022-11-06T08:44:43.774Z,2.88
2022-11-06T08:50:49.669Z,2.85
2022-11-06T08:53:53.873Z,2.35
2022-11-06T08:56:59.081Z,2.17
2022-11-06T09:00:01.564Z,3.30
2022-11-06T09:03:06.931Z,3.00
2022-11-06T09:06:10.013Z,3.03
2022-11-06T09:09:12.363Z,2.45
2022-11-06T09:12:14.884Z,3.15
2022-11-06T09:15:17.565Z,3.08
2022-11-06T09:18:19.627Z,3.60
2022-11-06T09:21:23.502Z,3.30
2022-11-06T09:24:49.567Z,3.47
2022-11-06T09:27:55.673Z,3.20
2022-11-06T09:31:02.637Z,2.72
2022-11-06T09:34:07.418Z,3.55
2022-11-06T09:37:09.838Z,2.80
2022-11-06T09:40:21.575Z,3.25
2022-11-06T09:44:05.564Z,2.50
2022-11-06T09:47:15.078Z,3.05
2022-11-06T09:50:22.419Z,3.17
2022-11-06T09:53:41.856Z,3.47
2022-11-06T09:56:49.765Z,3.35
2022-11-06T09:59:52.660Z,3.85
2022-11-06T10:03:07.990Z,2.55
2022-11-06T10:06:13.177Z,3.08
2022-11-06T10:09:17.929Z,3.28
2022-11-06T10:12:54.045Z,2.50
2022-11-06T10:16:32.040Z,3.45
2022-11-06T10:19:42.689Z,3.20
2022-11-06T10:23:06.430Z,3.55
2022-11-06T10:26:20.968Z,3.50
2022-11-06T10:30:08.956Z,4.15
2022-11-06T10:33:49.985Z,2.93
2022-11-06T10:36:55.658Z,3.20
2022-11-06T10:39:58.600Z,3.67
2022-11-06T10:43:25.260Z,2.85
2022-11-06T10:46:30.102Z,3.60
2022-11-06T10:49:46.970Z,3.10
2022-11-06T10:53:08.769Z,3.53
2022-11-06T10:56:35.059Z,3.60
2022-11-06T10:59:37.479Z,4.20
2022-11-06T11:03:01.769Z,3.58
2022-11-06T11:06:13.345Z,3.28
2022-11-06T11:09:35.302Z,3.03
2022-11-06T11:16:18.636Z,3.30
2022-11-06T11:19:39.302Z,3.47
2022-11-06T11:22:41.544Z,3.00
2022-11-06T11:25:47.029Z,3.60
2022-11-06T11:28:58.609Z,3.70
2022-11-06T11:32:03.803Z,3.38
2022-11-06T11:35:09.515Z,3.15
2022-11-06T11:38:15.022Z,3.53
2022-11-06T11:41:20.428Z,3.30
2022-11-06T11:44:22.588Z,3.60
2022-11-06T11:47:24.840Z,3.47
2022-11-06T11:50:33.201Z,3.15
2022-11-06T11:53:35.447Z,3.08
2022-11-06T12:00:17.019Z,3.15
2022-11-06T12:03:19.757Z,3.97
2022-11-06T12:06:21.719Z,2.53
2022-11-06T12:09:24.150Z,2.97
2022-11-06T12:12:35.467Z,2.63
2022-11-06T12:15:57.013Z,2.72
2022-11-06T12:18:59.319Z,3.08
2022-11-06T12:22:06.078Z,3.17
2022-11-06T12:25:20.017Z,2.63
2022-11-06T12:28:22.894Z,2.65
2022-11-06T12:31:45.463Z,2.80
2022-11-06T12:35:14.087Z,3.55
2022-11-06T12:38:37.930Z,2.80
2022-11-06T12:41:43.894Z,2.53
2022-11-06T12:44:47.565Z,3.83
2022-11-06T12:47:57.354Z,2.72
2022-11-06T12:50:59.340Z,2.50
2022-11-06T12:54:19.864Z,2.65
2022-11-06T12:57:40.568Z,2.92
2022-11-06T13:01:30.281Z,2.53
2022-11-06T13:04:47.800Z,3.05
2022-11-06T13:11:04.556Z,3.28
2022-11-06T13:14:17.122Z,2.45
2022-11-06T13:17:27.580Z,2.95
2022-11-06T13:20:37.337Z,2.83
2022-11-06T13:23:51.583Z,2.72
2022-11-06T13:27:00.076Z,3.00
2022-11-06T13:30:22.767Z,2.72
2022-11-06T13:33:26.251Z,3.17
2022-11-06T13:36:29.549Z,2.13
2022-11-06T13:39:41.258Z,2.78
2022-11-06T13:42:48.720Z,3.08
2022-11-06T13:45:53.856Z,3.67
2022-11-06T13:49:05.482Z,2.88
2022-11-06T13:52:21.627Z,2.63
2022-11-06T13:55:38.490Z,2.88
2022-11-06T13:58:57.519Z,2.70
2022-11-06T14:02:21.386Z,2.35
2022-11-06T14:05:51.372Z,2.60
2022-11-06T14:09:06.807Z,2.30
2022-11-06T14:12:15.666Z,2.15
2022-11-06T14:15:34.937Z,3.00
2022-11-06T14:18:36.966Z,3.40
2022-11-06T14:21:42.936Z,2.83
2022-11-06T14:24:44.911Z,2.53
2022-11-06T14:27:49.761Z,1.95
2022-11-06T14:31:11.704Z,2.95
2022-11-06T14:34:34.229Z,2.65
2022-11-06T14:37:42.560Z,2.75
2022-11-06T14:40:44.674Z,2.20
2022-11-06T14:43:50.148Z,2.17
2022-11-06T14:46:55.085Z,1.95
2022-11-06T14:49:59.648Z,2.53
2022-11-06T14:53:05.364Z,2.17
2022-11-06T14:56:11.313Z,2.72
2022-11-06T14:59:20.950Z,3.63
2022-11-06T15:02:25.641Z,4.15
2022-11-06T15:05:27.709Z,6.32
2022-11-06T15:08:51.498Z,6.18
2022-11-06T15:11:54.956Z,6.38
2022-11-06T15:15:01.199Z,3.97
2022-11-06T15:18:04.583Z,5.37
2022-11-06T15:21:08.956Z,7.00
2022-11-06T15:24:32.183Z,9.13
2022-11-06T15:27:45.879Z,12.13
2022-11-06T15:30:50.610Z,10.10
2022-11-06T15:34:02.975Z,16.60
2022-11-06T15:37:23.869Z,12.80
2022-11-06T15:40:33.902Z,14.93
2022-11-06T15:43:37.673Z,18.55
2022-11-06T15:46:53.008Z,19.92
2022-11-06T15:50:20.811Z,14.65
2022-11-06T15:53:27.365Z,12.77
2022-11-06T15:56:34.989Z,12.30
2022-11-06T15:59:37.120Z,9.55
2022-11-06T16:02:57.838Z,8.63
2022-11-06T16:06:02.171Z,8.98
2022-11-06T16:09:04.965Z,5.93
2022-11-06T16:12:08.015Z,5.07
2022-11-06T16:15:48.815Z,6.20
2022-11-06T16:18:50.989Z,6.95
2022-11-06T16:22:14.828Z,9.70
2022-11-06T16:25:20.151Z,7.03
2022-11-06T16:28:23.110Z,7.13
2022-11-06T16:31:28.068Z,6.65
2022-11-06T16:34:44.483Z,7.07
2022-11-06T16:37:46.863Z,6.38
2022-11-06T16:40:51.813Z,4.88
2022-11-06T16:44:18.221Z,3.30
2022-11-06T16:47:24.508Z,3.10
2022-11-06T16:50:46.118Z,5.77
2022-11-06T16:54:10.740Z,4.97
2022-11-06T16:57:18.815Z,3.28
2022-11-06T17:00:22.019Z,3.88
2022-11-06T17:03:24.692Z,2.88
2022-11-06T17:06:29.741Z,4.85
2022-11-06T17:09:34.546Z,5.57
2022-11-06T17:12:36.472Z,5.53
2022-11-06T17:15:38.676Z,3.50
2022-11-06T17:18:40.736Z,2.90
2022-11-06T17:21:42.800Z,2.50
2022-11-06T17:24:44.777Z,2.97
2022-11-06T17:27:46.917Z,2.00
2022-11-06T17:30:49.577Z,2.05
2022-11-06T17:33:52.877Z,2.63
2022-11-06T17:36:55.131Z,5.40
2022-11-06T17:39:57.660Z,13.18
2022-11-06T17:43:00.358Z,8.98
2022-11-06T17:46:03.470Z,7.10
2022-11-06T17:49:06.272Z,6.90
2022-11-06T17:52:09.407Z,6.32
2022-11-06T17:55:11.936Z,6.38
2022-11-06T17:58:14.505Z,6.32
2022-11-06T18:01:17.831Z,5.40
2022-11-06T18:04:22.366Z,5.80
2022-11-06T18:07:24.689Z,6.88
2022-11-06T18:10:30.450Z,9.02
2022-11-06T18:13:33.358Z,9.47
2022-11-06T18:16:42.293Z,9.63
2022-11-06T18:19:45.981Z,6.80
2022-11-06T18:22:48.799Z,4.03
2022-11-06T18:25:55.905Z,4.05
2022-11-06T18:28:58.607Z,6.10
2022-11-06T18:32:01.171Z,8.77
2022-11-06T18:35:03.664Z,4.50
2022-11-06T18:38:05.913Z,4.93
2022-11-06T18:41:14.400Z,5.20
2022-11-06T18:44:18.275Z,5.50
2022-11-06T18:47:21.117Z,4.57
2022-11-06T18:50:23.306Z,4.40
2022-11-06T18:53:25.396Z,3.97
2022-11-06T18:56:27.975Z,5.50
2022-11-06T18:59:30.722Z,4.00
2022-11-06T19:02:33.271Z,3.35
2022-11-06T19:05:35.434Z,4.65
2022-11-06T19:08:38.227Z,4.25
2022-11-06T19:11:40.522Z,4.75
2022-11-06T19:14:43.091Z,3.78
2022-11-06T19:17:45.299Z,4.10
2022-11-06T19:20:47.327Z,3.75
2022-11-06T19:23:49.554Z,3.70
2022-11-06T19:26:51.999Z,3.58
2022-11-06T19:29:54.477Z,3.85
2022-11-06T19:32:56.696Z,3.22
2022-11-06T19:36:03.137Z,2.95
2022-11-06T19:39:07.110Z,2.97
2022-11-06T19:42:09.477Z,3.22
2022-11-06T19:45:12.612Z,3.38
2022-11-06T19:48:15.763Z,3.28
2022-11-06T19:51:18.406Z,4.00
2022-11-06T19:54:20.685Z,2.70
2022-11-06T19:57:28.578Z,3.05
2022-11-06T20:00:32.177Z,3.70
2022-11-06T20:03:34.588Z,4.70
2022-11-06T20:06:39.344Z,3.75
2022-11-06T20:09:41.596Z,3.33
2022-11-06T20:12:43.688Z,2.92
2022-11-06T20:15:46.261Z,2.70
2022-11-06T20:18:52.880Z,3.08
2022-11-06T20:21:55.109Z,3.33
2022-11-06T20:24:57.514Z,3.25
2022-11-06T20:27:59.685Z,4.22
2022-11-06T20:31:07.308Z,3.55
2022-11-06T20:34:09.528Z,3.05
2022-11-06T20:37:11.925Z,3.03
2022-11-06T20:40:14.004Z,3.97
2022-11-06T20:43:16.461Z,3.38
2022-11-06T20:46:21.173Z,3.83
2022-11-06T20:49:24.291Z,3.17
2022-11-06T20:52:26.134Z,4.05
2022-11-06T20:55:29.579Z,3.58
2022-11-06T20:58:32.194Z,3.75
2022-11-06T21:01:35.307Z,3.33
2022-11-06T21:04:37.723Z,3.30
2022-11-06T21:07:39.894Z,3.80
2022-11-06T21:10:42.155Z,3.60
2022-11-06T21:13:46.512Z,3.05
2022-11-06T21:16:49.043Z,3.63
2022-11-06T21:19:51.490Z,2.90
2022-11-06T21:22:53.978Z,2.70
2022-11-06T21:25:56.168Z,2.78
2022-11-06T21:28:58.937Z,3.47
2022-11-06T21:32:01.242Z,4.93
2022-11-06T21:35:03.383Z,6.05
2022-11-06T21:38:06.738Z,4.65
2022-11-06T21:41:11.462Z,4.97
2022-11-06T21:44:16.113Z,5.38
2022-11-06T21:47:21.434Z,6.30
2022-11-06T21:50:29.941Z,6.40
2022-11-06T21:53:51.345Z,7.32
2022-11-06T21:56:54.745Z,6.63
2022-11-06T21:59:57.304Z,8.05
2022-11-06T22:02:59.363Z,8.82
2022-11-06T22:06:08.846Z,8.15
2022-11-06T22:09:13.040Z,7.97
2022-11-06T22:12:14.918Z,8.55
2022-11-06T22:15:17.024Z,8.73
2022-11-06T22:18:18.944Z,7.40
2022-11-06T22:21:23.091Z,8.20
2022-11-06T22:24:25.047Z,10.32
2022-11-06T22:27:40.712Z,9.32
2022-11-06T22:30:43.313Z,6.70
2022-11-06T22:33:53.262Z,3.92
2022-11-06T22:36:55.868Z,5.82
2022-11-06T22:39:57.853Z,4.68
2022-11-06T22:43:00.110Z,3.85
2022-11-06T22:46:08.464Z,3.97
2022-11-06T22:49:10.385Z,4.28
2022-11-06T22:52:12.303Z,3.42
2022-11-06T22:55:14.427Z,3.45
2022-11-06T22:58:16.721Z,3.28
2022-11-06T23:01:21.629Z,2.72
2022-11-06T23:04:23.416Z,2.97
2022-11-06T23:07:25.522Z,4.00
2022-11-06T23:10:30.640Z,2.67
2022-11-06T23:13:32.500Z,3.97
2022-11-06T23:16:53.057Z,3.13
2022-11-06T23:19:56.162Z,3.60
2022-11-06T23:22:58.510Z,3.20
2022-11-06T23:26:10.821Z,3.30
2022-11-06T23:29:12.916Z,3.58
2022-11-06T23:32:14.634Z,3.50
2022-11-06T23:35:17.231Z,4.20
2022-11-06T23:38:19.597Z,6.28
2022-11-06T23:41:40.184Z,3.33
2022-11-06T23:45:00.977Z,3.60
2022-11-06T23:48:08.284Z,2.83
2022-11-06T23:51:10.536Z,3.22
2022-11-06T23:54:12.340Z,3.80
2022-11-06T23:57:14.229Z,2.72
